Terminal Aerodrome Forecast
Issued by NWS

Home | Current Version | Previous Version | Text Only | Print | Product List | Glossary On
Versions: 1 2 3 4 5 6 7 8 9 10 11 12 13 14 15 16 17 18 19 20
864
FTUS43 KJKL 191443 AAC
TAFSME
TAF AMD
KSME 191443Z 1915/2012 VRB06KT P6SM SCT015 OVC025
     FM191600 32005KT P6SM VCSH BKN035
     FM191800 32008KT P6SM FEW250=

USA.gov is the U.S. government's official web portal to all federal, state and local government web resources and services.